HOURLY OBS INDEX

021

Northern Agricultural - Lower North

CLARE HIGH SCHOOL

Site: 021131
Alt: 395.0m
2km NW of CLARE


  Time     Wind        Temp  DP   Baro     Rain since   Rain past  Vis(m), Cloud(base in m), Weather
  local        km/h                         9am  last   hr   10m    
Tue 06:30    C  0/  0   6.1  3.4  1021.6    0.0   0.0   0.0   0.0   ----- 
Tue 07:00  WNW  6/ 15   5.5  3.0  1022.0    0.0   0.0   0.0   0.0   ----- 
Tue 07:30   SE  2/  6   5.7  3.0  1022.5    0.0   0.0   0.0   0.0   ----- 
Tue 08:00   SE  2/  7   6.1  3.8  1023.0    0.0   0.0   0.0   0.0   ----- 
Tue 08:30    C  0/  0   8.2  4.4  1023.5    0.0   0.0   0.0   0.0   ----- 
Tue 09:00    N  2/  7  10.8  4.9  1023.7    0.0   0.0   0.0   0.0   ----- 
Tue 09:30  SSW 19/ 28  13.9  5.8  1023.9    0.0   0.0   0.0   0.0   ----- 
Tue 10:00    S 13/ 24  14.7  6.0  1024.2    0.0   0.0   0.0   0.0   ----- 
Tue 10:30    S 13/ 24  15.6  6.1  1024.2    0.0   0.0   0.0   0.0   ----- 
Tue 11:00    S 13/ 20  16.1  6.0  1024.3    0.0   0.0   0.0   0.0   ----- 
Tue 11:30   SW 13/ 24  16.7  6.2  1024.3    0.0   0.0   0.0   0.0   ----- 
Tue 12:00  SSW 13/ 22  17.2  6.4  1024.3    0.0   0.0   0.0   0.0   ----- 

PORT PIRIE AERODROME AWS

Site: 021139
Alt: 12.0m
km of


  Time     Wind        Temp  DP   Baro     Rain since   Rain past  Vis(m), Cloud(base in m), Weather
  local        km/h                         9am  last   hr   10m    
Tue 06:30   SE 15/ 19  14.4  4.7  1022.0    0.0   0.0   0.0   0.0   ----- 
Tue 07:00  ESE 15/ 20  14.4  4.7  1022.3    0.0   0.0   0.0   0.0   ----- 
Tue 07:30  ESE 15/ 19  14.6  4.9  1022.8    0.0   0.0   0.0   0.0   ----- 
Tue 08:00  ESE 13/ 15  15.1  5.0  1023.1    0.0   0.0   0.0   0.0   ----- 
Tue 08:30    E 15/ 19  16.0  5.3  1023.3    0.0   0.0   0.0   0.0   ----- 
Tue 09:00  ESE 20/ 24  17.2  5.2  1023.5    0.0   0.0   0.0   0.0   ----- 
Tue 09:30  ESE 20/ 26  17.6  5.2  1023.7    0.0   0.0   0.0   0.0   ----- 
Tue 10:00   SE 20/ 28  18.0  5.9  1024.0    0.0   0.0   0.0   0.0   ----- 
Tue 10:30   SE 17/ 24  18.8  6.3  1024.2    0.0   0.0   0.0   0.0   ----- 
Tue 11:00    S 24/ 35  19.3  7.4  1024.2    0.0   0.0   0.0   0.0   ----- 
Tue 11:30    S 19/ 28  19.6  6.7  1024.1    0.0   0.0   0.0   0.0   ----- 
Tue 12:00  SSE 13/ 20  20.0  6.7  1023.8    0.0   0.0   0.0   0.0   ----- 

SNOWTOWN (RAYVILLE PARK)

Site: 021133
Alt: 109.1m
37km WNW of CLARE


  Time     Wind        Temp  DP   Baro     Rain since   Rain past  Vis(m), Cloud(base in m), Weather
  local        km/h                         9am  last   hr   10m    
Tue 06:30  SSW  7/ 11   8.2  3.3  1021.7    0.0   0.0   0.0   0.0   ----- 
Tue 07:00   NW  7/  9   7.5  3.2  1022.1    0.0   0.0   0.0   0.0   ----- 
Tue 07:30    N 13/ 15   6.8  2.5  1022.7    0.0   0.0   0.0   0.0   ----- 
Tue 08:00    N 11/ 15   9.1  4.5  1023.1    0.0   0.0   0.0   0.0   ----- 
Tue 08:30  NNE  9/ 13  13.6  5.3  1023.5    0.0   0.0   0.0   0.0   ----- 
Tue 09:00  NNE 11/ 17  13.9  4.8  1023.8    0.0   0.0   0.0   0.0   ----- 
Tue 09:30  ESE  9/ 15  15.9  5.5  1023.9    0.0   0.0   0.0   0.0   ----- 
Tue 10:00    S 13/ 19  16.7  5.6  1024.1    0.0   0.0   0.0   0.0   ----- 
Tue 10:30    S 17/ 24  17.4  6.0  1024.1    0.0   0.0   0.0   0.0   ----- 
Tue 11:00    S 13/ 24  18.7  6.2  1024.1    0.0   0.0   0.0   0.0   ----- 
Tue 11:30    S 17/ 30  19.1  5.9  1024.2    0.0   0.0   0.0   0.0   ----- 
Tue 12:00    S 17/ 30  20.3  5.5  1024.0    0.0   0.0   0.0   0.0   -----